Terminal Aerodrome Forecast
Issued by NWS

Current Version | Previous Version | Graphics & Text | Print | Product List | Glossary On
Versions: 1 2 3 4 5 6 7 8 9 10 11 12 13 14 15 16 17
000
FTUS41 KPBZ 260756 AAA
TAFMGW
TAF AMD
KMGW 260756Z 2608/2706 00000KT P6SM SCT040
     FM260900 12003KT 5SM BR SKC
      TEMPO 2609/2612 2SM BR
     FM261400 14004KT P6SM SCT040=

USA.gov is the U.S. government's official web portal to all federal, state and local government web resources and services.